sensor_id;sensor_type;location;lat;lon;timestamp;P1;durP1;ratioP1;P2;durP2;ratioP2
31618;SDS011;18230;51.502;7.108;2023-08-17T00:04:19;10.90;;;4.65;;
31618;SDS011;18230;51.502;7.108;2023-08-17T00:09:19;13.27;;;5.60;;
31618;SDS011;18230;51.502;7.108;2023-08-17T00:14:20;8.65;;;4.95;;
31618;SDS011;18230;51.502;7.108;2023-08-17T00:19:21;7.93;;;4.53;;
31618;SDS011;18230;51.502;7.108;2023-08-17T00:24:22;7.68;;;4.88;;
31618;SDS011;18230;51.502;7.108;2023-08-17T00:29:23;8.88;;;4.65;;
31618;SDS011;18230;51.502;7.108;2023-08-17T00:34:23;7.05;;;4.40;;
31618;SDS011;18230;51.502;7.108;2023-08-17T00:39:24;6.68;;;4.57;;
31618;SDS011;18230;51.502;7.108;2023-08-17T00:44:25;6.47;;;4.40;;
31618;SDS011;18230;51.502;7.108;2023-08-17T00:49:25;8.70;;;5.30;;
31618;SDS011;18230;51.502;7.108;2023-08-17T00:54:26;14.02;;;5.55;;
31618;SDS011;18230;51.502;7.108;2023-08-17T00:59:29;7.47;;;5.07;;
31618;SDS011;18230;51.502;7.108;2023-08-17T01:04:31;11.45;;;5.80;;
31618;SDS011;18230;51.502;7.108;2023-08-17T01:09:32;8.88;;;5.53;;
31618;SDS011;18230;51.502;7.108;2023-08-17T01:14:35;13.25;;;5.45;;
31618;SDS011;18230;51.502;7.108;2023-08-17T01:19:43;9.43;;;5.45;;
31618;SDS011;18230;51.502;7.108;2023-08-17T01:24:45;8.82;;;5.43;;
31618;SDS011;18230;51.502;7.108;2023-08-17T01:29:46;8.82;;;5.43;;
31618;SDS011;18230;51.502;7.108;2023-08-17T01:34:50;8.00;;;5.20;;
31618;SDS011;18230;51.502;7.108;2023-08-17T01:39:58;10.32;;;4.97;;
31618;SDS011;18230;51.502;7.108;2023-08-17T01:44:59;9.43;;;4.90;;
31618;SDS011;18230;51.502;7.108;2023-08-17T01:50:00;9.35;;;5.25;;
31618;SDS011;18230;51.502;7.108;2023-08-17T01:55:01;8.93;;;5.35;;
31618;SDS011;18230;51.502;7.108;2023-08-17T02:00:03;9.43;;;4.63;;
31618;SDS011;18230;51.502;7.108;2023-08-17T02:05:05;11.13;;;4.60;;
31618;SDS011;18230;51.502;7.108;2023-08-17T02:10:05;5.75;;;4.50;;
31618;SDS011;18230;51.502;7.108;2023-08-17T02:15:07;11.73;;;5.75;;
31618;SDS011;18230;51.502;7.108;2023-08-17T02:20:08;12.43;;;4.72;;
31618;SDS011;18230;51.502;7.108;2023-08-17T02:25:09;11.10;;;4.95;;
31618;SDS011;18230;51.502;7.108;2023-08-17T02:30:10;8.73;;;4.88;;
31618;SDS011;18230;51.502;7.108;2023-08-17T02:35:11;12.23;;;5.75;;
31618;SDS011;18230;51.502;7.108;2023-08-17T02:40:12;9.57;;;5.38;;
31618;SDS011;18230;51.502;7.108;2023-08-17T02:45:12;17.55;;;5.47;;
31618;SDS011;18230;51.502;7.108;2023-08-17T02:50:13;16.23;;;6.28;;
31618;SDS011;18230;51.502;7.108;2023-08-17T02:55:14;9.98;;;4.82;;
31618;SDS011;18230;51.502;7.108;2023-08-17T03:00:14;8.98;;;4.95;;
31618;SDS011;18230;51.502;7.108;2023-08-17T03:05:15;9.43;;;4.30;;
31618;SDS011;18230;51.502;7.108;2023-08-17T03:10:16;8.57;;;4.78;;
31618;SDS011;18230;51.502;7.108;2023-08-17T03:15:17;7.53;;;4.68;;
31618;SDS011;18230;51.502;7.108;2023-08-17T03:20:20;10.55;;;5.00;;
31618;SDS011;18230;51.502;7.108;2023-08-17T03:25:31;8.82;;;4.30;;
31618;SDS011;18230;51.502;7.108;2023-08-17T03:30:32;10.73;;;5.03;;
31618;SDS011;18230;51.502;7.108;2023-08-17T03:35:32;15.48;;;5.18;;
31618;SDS011;18230;51.502;7.108;2023-08-17T03:40:33;13.90;;;4.57;;
31618;SDS011;18230;51.502;7.108;2023-08-17T03:45:34;10.50;;;4.95;;
31618;SDS011;18230;51.502;7.108;2023-08-17T03:50:34;13.73;;;5.07;;
31618;SDS011;18230;51.502;7.108;2023-08-17T03:55:35;8.73;;;5.18;;
31618;SDS011;18230;51.502;7.108;2023-08-17T04:00:35;11.40;;;5.22;;
31618;SDS011;18230;51.502;7.108;2023-08-17T04:05:36;12.13;;;4.70;;
31618;SDS011;18230;51.502;7.108;2023-08-17T04:10:37;8.25;;;4.80;;
31618;SDS011;18230;51.502;7.108;2023-08-17T04:15:38;11.93;;;5.40;;
31618;SDS011;18230;51.502;7.108;2023-08-17T04:20:39;11.55;;;7.05;;
31618;SDS011;18230;51.502;7.108;2023-08-17T04:25:40;11.45;;;6.00;;
31618;SDS011;18230;51.502;7.108;2023-08-17T04:30:40;13.88;;;7.15;;
31618;SDS011;18230;51.502;7.108;2023-08-17T04:35:41;12.35;;;6.63;;
31618;SDS011;18230;51.502;7.108;2023-08-17T04:40:42;11.73;;;5.60;;
31618;SDS011;18230;51.502;7.108;2023-08-17T04:45:43;12.88;;;6.43;;
31618;SDS011;18230;51.502;7.108;2023-08-17T04:50:48;11.90;;;6.07;;
31618;SDS011;18230;51.502;7.108;2023-08-17T04:55:48;11.95;;;6.03;;
31618;SDS011;18230;51.502;7.108;2023-08-17T05:00:49;11.27;;;6.05;;
31618;SDS011;18230;51.502;7.108;2023-08-17T05:05:51;9.52;;;5.68;;
31618;SDS011;18230;51.502;7.108;2023-08-17T05:10:53;14.38;;;6.43;;
31618;SDS011;18230;51.502;7.108;2023-08-17T05:15:53;14.20;;;5.97;;
31618;SDS011;18230;51.502;7.108;2023-08-17T05:20:54;13.07;;;6.15;;
31618;SDS011;18230;51.502;7.108;2023-08-17T05:25:54;10.40;;;6.22;;
31618;SDS011;18230;51.502;7.108;2023-08-17T05:30:55;9.20;;;5.97;;
31618;SDS011;18230;51.502;7.108;2023-08-17T05:35:56;13.50;;;6.40;;
31618;SDS011;18230;51.502;7.108;2023-08-17T05:40:58;12.52;;;5.97;;
31618;SDS011;18230;51.502;7.108;2023-08-17T05:45:59;17.42;;;6.00;;
31618;SDS011;18230;51.502;7.108;2023-08-17T05:50:59;14.48;;;6.40;;
31618;SDS011;18230;51.502;7.108;2023-08-17T05:56:00;15.77;;;6.18;;
31618;SDS011;18230;51.502;7.108;2023-08-17T06:01:05;12.73;;;6.43;;
31618;SDS011;18230;51.502;7.108;2023-08-17T06:06:09;13.32;;;6.85;;
31618;SDS011;18230;51.502;7.108;2023-08-17T06:11:10;15.65;;;6.70;;
31618;SDS011;18230;51.502;7.108;2023-08-17T06:16:10;13.48;;;5.28;;
31618;SDS011;18230;51.502;7.108;2023-08-17T06:21:11;9.98;;;5.28;;
31618;SDS011;18230;51.502;7.108;2023-08-17T06:26:12;16.63;;;7.13;;
31618;SDS011;18230;51.502;7.108;2023-08-17T06:31:16;16.77;;;6.95;;
31618;SDS011;18230;51.502;7.108;2023-08-17T06:36:16;22.45;;;7.57;;
31618;SDS011;18230;51.502;7.108;2023-08-17T06:41:17;17.63;;;8.27;;
31618;SDS011;18230;51.502;7.108;2023-08-17T06:46:18;22.60;;;8.20;;
31618;SDS011;18230;51.502;7.108;2023-08-17T06:51:18;17.95;;;8.40;;
31618;SDS011;18230;51.502;7.108;2023-08-17T06:56:19;17.70;;;8.60;;
31618;SDS011;18230;51.502;7.108;2023-08-17T07:01:19;19.73;;;9.57;;
31618;SDS011;18230;51.502;7.108;2023-08-17T07:06:20;14.18;;;8.13;;
31618;SDS011;18230;51.502;7.108;2023-08-17T07:11:21;20.88;;;9.95;;
31618;SDS011;18230;51.502;7.108;2023-08-17T07:16:21;18.55;;;9.50;;
31618;SDS011;18230;51.502;7.108;2023-08-17T07:21:22;22.77;;;12.10;;
31618;SDS011;18230;51.502;7.108;2023-08-17T07:26:23;24.67;;;10.98;;
31618;SDS011;18230;51.502;7.108;2023-08-17T07:31:23;21.52;;;13.25;;
31618;SDS011;18230;51.502;7.108;2023-08-17T07:36:24;24.45;;;12.45;;
31618;SDS011;18230;51.502;7.108;2023-08-17T07:41:25;28.25;;;15.18;;
31618;SDS011;18230;51.502;7.108;2023-08-17T07:46:26;30.35;;;19.73;;
31618;SDS011;18230;51.502;7.108;2023-08-17T07:51:26;31.27;;;17.77;;
31618;SDS011;18230;51.502;7.108;2023-08-17T07:56:29;36.45;;;17.70;;
31618;SDS011;18230;51.502;7.108;2023-08-17T08:01:30;28.17;;;16.75;;
31618;SDS011;18230;51.502;7.108;2023-08-17T08:06:31;29.90;;;16.75;;
31618;SDS011;18230;51.502;7.108;2023-08-17T08:11:31;30.92;;;15.88;;
31618;SDS011;18230;51.502;7.108;2023-08-17T08:16:32;30.30;;;13.85;;
31618;SDS011;18230;51.502;7.108;2023-08-17T08:21:33;24.73;;;12.93;;
31618;SDS011;18230;51.502;7.108;2023-08-17T08:26:33;26.58;;;13.70;;
31618;SDS011;18230;51.502;7.108;2023-08-17T08:31:34;28.02;;;13.20;;
31618;SDS011;18230;51.502;7.108;2023-08-17T08:36:34;26.00;;;12.82;;
31618;SDS011;18230;51.502;7.108;2023-08-17T08:41:35;32.67;;;13.20;;
31618;SDS011;18230;51.502;7.108;2023-08-17T08:46:38;24.85;;;13.50;;
31618;SDS011;18230;51.502;7.108;2023-08-17T08:51:42;27.42;;;13.80;;
31618;SDS011;18230;51.502;7.108;2023-08-17T08:56:44;25.92;;;14.40;;
31618;SDS011;18230;51.502;7.108;2023-08-17T09:01:50;27.23;;;11.27;;
31618;SDS011;18230;51.502;7.108;2023-08-17T09:06:51;24.50;;;12.95;;
31618;SDS011;18230;51.502;7.108;2023-08-17T09:11:51;27.05;;;11.57;;
31618;SDS011;18230;51.502;7.108;2023-08-17T09:16:52;24.25;;;12.95;;
31618;SDS011;18230;51.502;7.108;2023-08-17T09:21:53;21.98;;;12.80;;
31618;SDS011;18230;51.502;7.108;2023-08-17T09:26:53;26.90;;;11.80;;
31618;SDS011;18230;51.502;7.108;2023-08-17T09:31:58;21.58;;;11.75;;
31618;SDS011;18230;51.502;7.108;2023-08-17T09:37:05;17.55;;;10.48;;
31618;SDS011;18230;51.502;7.108;2023-08-17T09:42:06;23.35;;;12.88;;
31618;SDS011;18230;51.502;7.108;2023-08-17T09:47:06;23.45;;;13.85;;
31618;SDS011;18230;51.502;7.108;2023-08-17T09:52:07;21.90;;;12.20;;
31618;SDS011;18230;51.502;7.108;2023-08-17T09:57:10;19.38;;;11.32;;
31618;SDS011;18230;51.502;7.108;2023-08-17T10:02:18;23.08;;;13.25;;
31618;SDS011;18230;51.502;7.108;2023-08-17T10:07:19;16.10;;;10.82;;
31618;SDS011;18230;51.502;7.108;2023-08-17T10:12:23;17.60;;;11.65;;
31618;SDS011;18230;51.502;7.108;2023-08-17T10:17:28;22.25;;;11.63;;
31618;SDS011;18230;51.502;7.108;2023-08-17T10:27:45;24.75;;;14.07;;
31618;SDS011;18230;51.502;7.108;2023-08-17T10:32:47;20.90;;;12.50;;
31618;SDS011;18230;51.502;7.108;2023-08-17T10:37:47;24.83;;;12.90;;
31618;SDS011;18230;51.502;7.108;2023-08-17T10:42:48;24.63;;;14.85;;
31618;SDS011;18230;51.502;7.108;2023-08-17T10:53:08;31.38;;;19.60;;
31618;SDS011;18230;51.502;7.108;2023-08-17T10:58:11;27.98;;;18.48;;
31618;SDS011;18230;51.502;7.108;2023-08-17T11:03:18;28.25;;;16.13;;
31618;SDS011;18230;51.502;7.108;2023-08-17T11:13:43;36.67;;;21.48;;
31618;SDS011;18230;51.502;7.108;2023-08-17T11:18:46;39.42;;;22.30;;
31618;SDS011;18230;51.502;7.108;2023-08-17T11:23:47;27.48;;;16.70;;
31618;SDS011;18230;51.502;7.108;2023-08-17T11:28:48;26.00;;;17.23;;
31618;SDS011;18230;51.502;7.108;2023-08-17T11:33:49;30.13;;;17.33;;
31618;SDS011;18230;51.502;7.108;2023-08-17T11:38:50;29.55;;;16.98;;
31618;SDS011;18230;51.502;7.108;2023-08-17T11:43:52;31.52;;;18.20;;
31618;SDS011;18230;51.502;7.108;2023-08-17T11:48:54;30.38;;;19.95;;
31618;SDS011;18230;51.502;7.108;2023-08-17T11:53:58;31.13;;;20.10;;
31618;SDS011;18230;51.502;7.108;2023-08-17T11:59:07;34.95;;;21.40;;
31618;SDS011;18230;51.502;7.108;2023-08-17T12:04:11;30.15;;;20.20;;
31618;SDS011;18230;51.502;7.108;2023-08-17T12:09:11;35.00;;;20.40;;
31618;SDS011;18230;51.502;7.108;2023-08-17T12:14:15;29.30;;;16.85;;
31618;SDS011;18230;51.502;7.108;2023-08-17T12:19:16;26.42;;;16.38;;
31618;SDS011;18230;51.502;7.108;2023-08-17T12:24:23;29.50;;;16.27;;
31618;SDS011;18230;51.502;7.108;2023-08-17T12:29:24;24.45;;;15.10;;
31618;SDS011;18230;51.502;7.108;2023-08-17T12:34:24;28.05;;;15.57;;
31618;SDS011;18230;51.502;7.108;2023-08-17T12:39:25;23.90;;;15.93;;
31618;SDS011;18230;51.502;7.108;2023-08-17T12:44:26;25.23;;;16.38;;
31618;SDS011;18230;51.502;7.108;2023-08-17T12:49:26;28.00;;;17.92;;
31618;SDS011;18230;51.502;7.108;2023-08-17T12:54:27;27.48;;;17.15;;
31618;SDS011;18230;51.502;7.108;2023-08-17T12:59:27;22.27;;;15.50;;
31618;SDS011;18230;51.502;7.108;2023-08-17T13:04:28;22.23;;;15.48;;
31618;SDS011;18230;51.502;7.108;2023-08-17T13:09:29;28.58;;;17.17;;
31618;SDS011;18230;51.502;7.108;2023-08-17T13:14:29;27.90;;;17.10;;
31618;SDS011;18230;51.502;7.108;2023-08-17T13:19:30;24.67;;;18.90;;
31618;SDS011;18230;51.502;7.108;2023-08-17T13:24:31;28.80;;;17.45;;
31618;SDS011;18230;51.502;7.108;2023-08-17T13:29:31;23.77;;;18.67;;
31618;SDS011;18230;51.502;7.108;2023-08-17T13:34:32;28.80;;;21.50;;
31618;SDS011;18230;51.502;7.108;2023-08-17T13:39:33;28.17;;;21.55;;
31618;SDS011;18230;51.502;7.108;2023-08-17T13:44:33;26.08;;;20.27;;
31618;SDS011;18230;51.502;7.108;2023-08-17T13:49:34;27.92;;;19.83;;
31618;SDS011;18230;51.502;7.108;2023-08-17T13:54:34;24.35;;;14.32;;
31618;SDS011;18230;51.502;7.108;2023-08-17T13:59:35;25.65;;;17.35;;
31618;SDS011;18230;51.502;7.108;2023-08-17T14:04:36;24.40;;;16.58;;
31618;SDS011;18230;51.502;7.108;2023-08-17T14:09:36;24.35;;;15.88;;
31618;SDS011;18230;51.502;7.108;2023-08-17T14:14:37;30.48;;;20.38;;
31618;SDS011;18230;51.502;7.108;2023-08-17T14:19:38;25.60;;;16.52;;
31618;SDS011;18230;51.502;7.108;2023-08-17T14:24:38;25.30;;;18.58;;
31618;SDS011;18230;51.502;7.108;2023-08-17T14:29:39;36.20;;;21.50;;
31618;SDS011;18230;51.502;7.108;2023-08-17T14:34:39;24.98;;;18.70;;
31618;SDS011;18230;51.502;7.108;2023-08-17T14:39:40;32.47;;;21.77;;
31618;SDS011;18230;51.502;7.108;2023-08-17T14:44:42;30.58;;;21.45;;
31618;SDS011;18230;51.502;7.108;2023-08-17T14:49:47;27.17;;;18.13;;
31618;SDS011;18230;51.502;7.108;2023-08-17T14:54:55;23.50;;;17.67;;
31618;SDS011;18230;51.502;7.108;2023-08-17T15:00:44;38.92;;;21.13;;
31618;SDS011;18230;51.502;7.108;2023-08-17T15:05:45;30.75;;;21.27;;
31618;SDS011;18230;51.502;7.108;2023-08-17T15:10:46;24.05;;;18.55;;
31618;SDS011;18230;51.502;7.108;2023-08-17T15:15:47;33.00;;;19.95;;
31618;SDS011;18230;51.502;7.108;2023-08-17T15:20:51;28.23;;;17.88;;
31618;SDS011;18230;51.502;7.108;2023-08-17T15:25:51;25.00;;;17.50;;
31618;SDS011;18230;51.502;7.108;2023-08-17T15:30:59;22.65;;;15.23;;
31618;SDS011;18230;51.502;7.108;2023-08-17T15:36:02;28.98;;;16.77;;
31618;SDS011;18230;51.502;7.108;2023-08-17T15:41:02;23.15;;;15.65;;
31618;SDS011;18230;51.502;7.108;2023-08-17T15:46:03;20.67;;;13.25;;
31618;SDS011;18230;51.502;7.108;2023-08-17T15:51:05;23.52;;;11.90;;
31618;SDS011;18230;51.502;7.108;2023-08-17T15:56:06;31.27;;;16.58;;
31618;SDS011;18230;51.502;7.108;2023-08-17T16:01:06;25.67;;;14.95;;
31618;SDS011;18230;51.502;7.108;2023-08-17T16:06:07;22.00;;;13.27;;
31618;SDS011;18230;51.502;7.108;2023-08-17T16:11:08;23.67;;;12.30;;
31618;SDS011;18230;51.502;7.108;2023-08-17T16:16:10;15.52;;;11.05;;
31618;SDS011;18230;51.502;7.108;2023-08-17T16:21:10;17.40;;;12.77;;
31618;SDS011;18230;51.502;7.108;2023-08-17T16:26:11;17.65;;;12.85;;
31618;SDS011;18230;51.502;7.108;2023-08-17T16:31:12;15.15;;;9.75;;
31618;SDS011;18230;51.502;7.108;2023-08-17T16:36:13;16.67;;;11.18;;
31618;SDS011;18230;51.502;7.108;2023-08-17T16:41:13;16.00;;;11.50;;
31618;SDS011;18230;51.502;7.108;2023-08-17T16:46:14;18.73;;;11.57;;
31618;SDS011;18230;51.502;7.108;2023-08-17T16:51:15;16.92;;;11.57;;
31618;SDS011;18230;51.502;7.108;2023-08-17T16:56:16;15.55;;;10.80;;
31618;SDS011;18230;51.502;7.108;2023-08-17T17:01:17;16.00;;;10.35;;
31618;SDS011;18230;51.502;7.108;2023-08-17T17:06:18;13.05;;;10.55;;
31618;SDS011;18230;51.502;7.108;2023-08-17T17:11:19;10.85;;;9.25;;
31618;SDS011;18230;51.502;7.108;2023-08-17T17:16:20;10.43;;;9.10;;
31618;SDS011;18230;51.502;7.108;2023-08-17T17:21:21;11.73;;;9.10;;
31618;SDS011;18230;51.502;7.108;2023-08-17T17:26:21;13.65;;;10.40;;
31618;SDS011;18230;51.502;7.108;2023-08-17T17:31:22;14.68;;;9.93;;
31618;SDS011;18230;51.502;7.108;2023-08-17T17:36:23;15.68;;;11.23;;
31618;SDS011;18230;51.502;7.108;2023-08-17T17:41:23;13.35;;;9.85;;
31618;SDS011;18230;51.502;7.108;2023-08-17T17:46:24;13.00;;;10.18;;
31618;SDS011;18230;51.502;7.108;2023-08-17T17:51:25;16.02;;;11.35;;
31618;SDS011;18230;51.502;7.108;2023-08-17T17:56:35;16.92;;;12.50;;
31618;SDS011;18230;51.502;7.108;2023-08-17T18:01:37;16.25;;;10.70;;
31618;SDS011;18230;51.502;7.108;2023-08-17T18:06:38;15.43;;;11.77;;
31618;SDS011;18230;51.502;7.108;2023-08-17T18:11:39;16.92;;;12.35;;
31618;SDS011;18230;51.502;7.108;2023-08-17T18:16:41;18.15;;;12.88;;
31618;SDS011;18230;51.502;7.108;2023-08-17T18:21:41;16.55;;;12.20;;
31618;SDS011;18230;51.502;7.108;2023-08-17T18:26:42;16.60;;;13.85;;
31618;SDS011;18230;51.502;7.108;2023-08-17T18:31:43;17.15;;;13.18;;
31618;SDS011;18230;51.502;7.108;2023-08-17T18:36:43;19.27;;;13.40;;
31618;SDS011;18230;51.502;7.108;2023-08-17T18:41:44;19.55;;;14.18;;
31618;SDS011;18230;51.502;7.108;2023-08-17T18:46:45;18.77;;;11.55;;
31618;SDS011;18230;51.502;7.108;2023-08-17T18:51:48;19.30;;;15.10;;
31618;SDS011;18230;51.502;7.108;2023-08-17T18:56:49;22.20;;;16.27;;
31618;SDS011;18230;51.502;7.108;2023-08-17T19:01:49;15.93;;;12.13;;
31618;SDS011;18230;51.502;7.108;2023-08-17T19:06:50;22.80;;;14.02;;
31618;SDS011;18230;51.502;7.108;2023-08-17T19:11:51;27.55;;;15.75;;
31618;SDS011;18230;51.502;7.108;2023-08-17T19:16:51;27.23;;;17.95;;
31618;SDS011;18230;51.502;7.108;2023-08-17T19:21:52;27.58;;;19.08;;
31618;SDS011;18230;51.502;7.108;2023-08-17T19:26:53;28.63;;;20.88;;
31618;SDS011;18230;51.502;7.108;2023-08-17T19:31:53;27.13;;;20.33;;
31618;SDS011;18230;51.502;7.108;2023-08-17T19:36:54;30.73;;;24.30;;
31618;SDS011;18230;51.502;7.108;2023-08-17T19:41:55;30.45;;;20.67;;
31618;SDS011;18230;51.502;7.108;2023-08-17T19:46:55;27.52;;;20.60;;
31618;SDS011;18230;51.502;7.108;2023-08-17T19:51:56;31.50;;;22.90;;
31618;SDS011;18230;51.502;7.108;2023-08-17T19:56:57;30.45;;;22.45;;
31618;SDS011;18230;51.502;7.108;2023-08-17T20:01:57;43.60;;;26.60;;
31618;SDS011;18230;51.502;7.108;2023-08-17T20:06:58;32.05;;;21.20;;
31618;SDS011;18230;51.502;7.108;2023-08-17T20:11:59;33.40;;;22.67;;
31618;SDS011;18230;51.502;7.108;2023-08-17T20:17:00;39.22;;;26.45;;
31618;SDS011;18230;51.502;7.108;2023-08-17T20:22:01;36.30;;;25.77;;
31618;SDS011;18230;51.502;7.108;2023-08-17T20:27:02;31.83;;;24.30;;
31618;SDS011;18230;51.502;7.108;2023-08-17T20:32:03;34.88;;;24.00;;
31618;SDS011;18230;51.502;7.108;2023-08-17T20:37:03;31.60;;;22.17;;
31618;SDS011;18230;51.502;7.108;2023-08-17T20:42:08;31.15;;;21.27;;
31618;SDS011;18230;51.502;7.108;2023-08-17T20:47:08;36.03;;;23.20;;
31618;SDS011;18230;51.502;7.108;2023-08-17T20:52:10;34.10;;;21.00;;
31618;SDS011;18230;51.502;7.108;2023-08-17T20:57:11;28.27;;;18.60;;
31618;SDS011;18230;51.502;7.108;2023-08-17T21:02:11;27.42;;;19.50;;
31618;SDS011;18230;51.502;7.108;2023-08-17T21:07:12;29.35;;;19.40;;
31618;SDS011;18230;51.502;7.108;2023-08-17T21:12:14;26.23;;;17.95;;
31618;SDS011;18230;51.502;7.108;2023-08-17T21:17:15;28.30;;;18.83;;
31618;SDS011;18230;51.502;7.108;2023-08-17T21:22:16;28.17;;;19.50;;
31618;SDS011;18230;51.502;7.108;2023-08-17T21:27:17;28.30;;;19.10;;
31618;SDS011;18230;51.502;7.108;2023-08-17T21:32:18;30.30;;;19.58;;
31618;SDS011;18230;51.502;7.108;2023-08-17T21:37:25;27.38;;;18.10;;
31618;SDS011;18230;51.502;7.108;2023-08-17T21:42:27;28.42;;;18.08;;
31618;SDS011;18230;51.502;7.108;2023-08-17T21:47:28;31.80;;;19.63;;
31618;SDS011;18230;51.502;7.108;2023-08-17T21:52:29;24.42;;;16.77;;
31618;SDS011;18230;51.502;7.108;2023-08-17T21:57:29;27.92;;;17.55;;
31618;SDS011;18230;51.502;7.108;2023-08-17T22:02:30;28.02;;;17.08;;
31618;SDS011;18230;51.502;7.108;2023-08-17T22:07:31;27.73;;;15.52;;
31618;SDS011;18230;51.502;7.108;2023-08-17T22:12:31;25.80;;;16.42;;
31618;SDS011;18230;51.502;7.108;2023-08-17T22:17:32;29.23;;;18.02;;
31618;SDS011;18230;51.502;7.108;2023-08-17T22:22:33;31.00;;;16.63;;
31618;SDS011;18230;51.502;7.108;2023-08-17T22:27:33;31.65;;;18.70;;
31618;SDS011;18230;51.502;7.108;2023-08-17T22:32:34;29.17;;;16.77;;
31618;SDS011;18230;51.502;7.108;2023-08-17T22:37:34;26.50;;;17.45;;
31618;SDS011;18230;51.502;7.108;2023-08-17T22:42:35;31.13;;;19.75;;
31618;SDS011;18230;51.502;7.108;2023-08-17T22:47:36;35.10;;;19.13;;
31618;SDS011;18230;51.502;7.108;2023-08-17T22:52:37;28.25;;;17.77;;
31618;SDS011;18230;51.502;7.108;2023-08-17T22:57:38;29.63;;;17.92;;
31618;SDS011;18230;51.502;7.108;2023-08-17T23:02:38;27.15;;;17.55;;
31618;SDS011;18230;51.502;7.108;2023-08-17T23:07:39;29.20;;;18.75;;
31618;SDS011;18230;51.502;7.108;2023-08-17T23:12:41;29.77;;;18.90;;
31618;SDS011;18230;51.502;7.108;2023-08-17T23:17:42;33.08;;;17.98;;
31618;SDS011;18230;51.502;7.108;2023-08-17T23:22:43;36.72;;;19.95;;
31618;SDS011;18230;51.502;7.108;2023-08-17T23:27:44;31.95;;;18.48;;
31618;SDS011;18230;51.502;7.108;2023-08-17T23:32:44;31.00;;;18.80;;
31618;SDS011;18230;51.502;7.108;2023-08-17T23:37:46;31.80;;;20.02;;
31618;SDS011;18230;51.502;7.108;2023-08-17T23:42:47;38.25;;;21.60;;
31618;SDS011;18230;51.502;7.108;2023-08-17T23:47:47;36.53;;;22.60;;
31618;SDS011;18230;51.502;7.108;2023-08-17T23:52:48;43.47;;;22.40;;
31618;SDS011;18230;51.502;7.108;2023-08-17T23:57:48;39.55;;;22.08;;
